Terminal Aerodrome Forecast
Issued by NWS

Home | Current Version | Previous Version | Text Only | Print | Product List | Glossary On
Versions: 1 2 3 4 5 6 7 8 9 10 11 12 13 14 15 16 17 18 19 20 21 22 23 24 25 26 27 28 29 30 31 32 33 34 35 36 37 38 39 40 41 42 43
000
FTUS41 KBOX 250832 AAA
TAFACK
TAF AMD
KACK 250832Z 2509/2606 30012KT P6SM SKC
     FM251700 27015KT P6SM FEW250
     FM252300 26010KT P6SM SCT050
     FM260500 31005KT P6SM FEW250=

USA.gov is the U.S. government's official web portal to all federal, state and local government web resources and services.